sensor_id;sensor_type;location;lat;lon;timestamp;P1;durP1;ratioP1;P2;durP2;ratioP2
35223;SDS011;21367;51.930;8.112;2023-05-07T00:03:00;13.63;;;6.80;;
35223;SDS011;21367;51.930;8.112;2023-05-07T00:08:07;13.57;;;6.38;;
35223;SDS011;21367;51.930;8.112;2023-05-07T00:13:11;13.80;;;6.90;;
35223;SDS011;21367;51.930;8.112;2023-05-07T00:18:14;12.82;;;7.88;;
35223;SDS011;21367;51.930;8.112;2023-05-07T00:23:24;16.58;;;9.07;;
35223;SDS011;21367;51.930;8.112;2023-05-07T00:28:27;25.00;;;10.85;;
35223;SDS011;21367;51.930;8.112;2023-05-07T00:33:31;17.85;;;10.40;;
35223;SDS011;21367;51.930;8.112;2023-05-07T00:38:37;24.23;;;12.13;;
35223;SDS011;21367;51.930;8.112;2023-05-07T00:48:44;27.33;;;16.15;;
35223;SDS011;21367;51.930;8.112;2023-05-07T00:53:51;24.63;;;15.43;;
35223;SDS011;21367;51.930;8.112;2023-05-07T01:03:58;34.75;;;18.63;;
35223;SDS011;21367;51.930;8.112;2023-05-07T01:09:05;35.33;;;21.67;;
35223;SDS011;21367;51.930;8.112;2023-05-07T01:14:09;36.63;;;20.58;;
35223;SDS011;21367;51.930;8.112;2023-05-07T01:19:13;39.00;;;22.48;;
35223;SDS011;21367;51.930;8.112;2023-05-07T01:24:23;40.28;;;22.05;;
35223;SDS011;21367;51.930;8.112;2023-05-07T01:29:27;39.30;;;23.10;;
35223;SDS011;21367;51.930;8.112;2023-05-07T01:34:32;43.13;;;23.88;;
35223;SDS011;21367;51.930;8.112;2023-05-07T01:39:42;48.35;;;24.50;;
35223;SDS011;21367;51.930;8.112;2023-05-07T01:44:46;49.17;;;25.48;;
35223;SDS011;21367;51.930;8.112;2023-05-07T01:49:50;47.67;;;25.35;;
35223;SDS011;21367;51.930;8.112;2023-05-07T01:54:57;48.45;;;25.55;;
35223;SDS011;21367;51.930;8.112;2023-05-07T02:05:15;45.25;;;24.92;;
35223;SDS011;21367;51.930;8.112;2023-05-07T02:10:26;43.55;;;24.40;;
35223;SDS011;21367;51.930;8.112;2023-05-07T02:15:30;44.55;;;24.50;;
35223;SDS011;21367;51.930;8.112;2023-05-07T02:20:36;41.53;;;23.98;;
35223;SDS011;21367;51.930;8.112;2023-05-07T02:25:42;44.08;;;25.08;;
35223;SDS011;21367;51.930;8.112;2023-05-07T02:30:46;50.17;;;28.10;;
35223;SDS011;21367;51.930;8.112;2023-05-07T02:35:50;44.58;;;25.85;;
35223;SDS011;21367;51.930;8.112;2023-05-07T02:40:57;52.28;;;26.63;;
35223;SDS011;21367;51.930;8.112;2023-05-07T02:46:02;50.08;;;25.88;;
35223;SDS011;21367;51.930;8.112;2023-05-07T02:51:10;43.25;;;23.80;;
35223;SDS011;21367;51.930;8.112;2023-05-07T02:56:18;52.70;;;26.40;;
35223;SDS011;21367;51.930;8.112;2023-05-07T03:01:22;50.80;;;27.25;;
35223;SDS011;21367;51.930;8.112;2023-05-07T03:06:34;51.38;;;26.17;;
35223;SDS011;21367;51.930;8.112;2023-05-07T03:11:41;51.08;;;25.70;;
35223;SDS011;21367;51.930;8.112;2023-05-07T03:21:48;44.88;;;26.80;;
35223;SDS011;21367;51.930;8.112;2023-05-07T03:26:55;53.42;;;26.30;;
35223;SDS011;21367;51.930;8.112;2023-05-07T03:31:59;46.63;;;26.77;;
35223;SDS011;21367;51.930;8.112;2023-05-07T03:37:03;47.00;;;27.15;;
35223;SDS011;21367;51.930;8.112;2023-05-07T03:42:10;50.67;;;27.10;;
35223;SDS011;21367;51.930;8.112;2023-05-07T03:47:14;61.38;;;28.15;;
35223;SDS011;21367;51.930;8.112;2023-05-07T03:52:19;56.45;;;27.33;;
35223;SDS011;21367;51.930;8.112;2023-05-07T03:57:30;47.97;;;26.73;;
35223;SDS011;21367;51.930;8.112;2023-05-07T04:02:34;57.35;;;27.63;;
35223;SDS011;21367;51.930;8.112;2023-05-07T04:07:38;61.40;;;29.35;;
35223;SDS011;21367;51.930;8.112;2023-05-07T04:12:46;48.90;;;28.17;;
35223;SDS011;21367;51.930;8.112;2023-05-07T04:17:55;52.13;;;27.13;;
35223;SDS011;21367;51.930;8.112;2023-05-07T04:22:59;54.97;;;29.35;;
35223;SDS011;21367;51.930;8.112;2023-05-07T04:28:06;49.83;;;27.85;;
35223;SDS011;21367;51.930;8.112;2023-05-07T04:33:11;56.35;;;29.17;;
35223;SDS011;21367;51.930;8.112;2023-05-07T04:38:18;57.92;;;30.25;;
35223;SDS011;21367;51.930;8.112;2023-05-07T04:43:28;54.70;;;29.13;;
35223;SDS011;21367;51.930;8.112;2023-05-07T04:48:33;56.13;;;29.83;;
35223;SDS011;21367;51.930;8.112;2023-05-07T04:53:39;44.42;;;25.73;;
35223;SDS011;21367;51.930;8.112;2023-05-07T04:58:46;53.67;;;29.65;;
35223;SDS011;21367;51.930;8.112;2023-05-07T05:03:53;56.10;;;28.98;;
35223;SDS011;21367;51.930;8.112;2023-05-07T05:08:57;58.15;;;29.77;;
35223;SDS011;21367;51.930;8.112;2023-05-07T05:14:05;52.20;;;29.33;;
35223;SDS011;21367;51.930;8.112;2023-05-07T05:19:09;55.35;;;29.13;;
35223;SDS011;21367;51.930;8.112;2023-05-07T05:24:14;53.80;;;28.17;;
35223;SDS011;21367;51.930;8.112;2023-05-07T05:29:21;51.67;;;27.75;;
35223;SDS011;21367;51.930;8.112;2023-05-07T05:34:25;55.05;;;30.15;;
35223;SDS011;21367;51.930;8.112;2023-05-07T05:39:29;53.85;;;29.88;;
35223;SDS011;21367;51.930;8.112;2023-05-07T05:44:36;51.80;;;28.05;;
35223;SDS011;21367;51.930;8.112;2023-05-07T05:49:40;47.45;;;27.35;;
35223;SDS011;21367;51.930;8.112;2023-05-07T05:54:45;47.47;;;26.47;;
35223;SDS011;21367;51.930;8.112;2023-05-07T05:59:52;51.47;;;28.85;;
35223;SDS011;21367;51.930;8.112;2023-05-07T06:04:56;52.22;;;27.67;;
35223;SDS011;21367;51.930;8.112;2023-05-07T06:10:00;53.63;;;27.63;;
35223;SDS011;21367;51.930;8.112;2023-05-07T06:15:10;45.50;;;25.33;;
35223;SDS011;21367;51.930;8.112;2023-05-07T06:20:15;55.72;;;27.20;;
35223;SDS011;21367;51.930;8.112;2023-05-07T06:25:19;52.80;;;27.85;;
35223;SDS011;21367;51.930;8.112;2023-05-07T06:30:26;43.78;;;25.80;;
35223;SDS011;21367;51.930;8.112;2023-05-07T06:35:31;46.83;;;23.83;;
35223;SDS011;21367;51.930;8.112;2023-05-07T06:40:34;49.45;;;27.02;;
35223;SDS011;21367;51.930;8.112;2023-05-07T06:45:41;50.83;;;25.65;;
35223;SDS011;21367;51.930;8.112;2023-05-07T06:50:45;48.28;;;26.17;;
35223;SDS011;21367;51.930;8.112;2023-05-07T06:55:49;47.03;;;26.05;;
35223;SDS011;21367;51.930;8.112;2023-05-07T07:00:56;46.55;;;26.23;;
35223;SDS011;21367;51.930;8.112;2023-05-07T07:06:00;46.05;;;24.17;;
35223;SDS011;21367;51.930;8.112;2023-05-07T07:11:06;56.87;;;25.47;;
35223;SDS011;21367;51.930;8.112;2023-05-07T07:16:17;51.97;;;26.48;;
35223;SDS011;21367;51.930;8.112;2023-05-07T07:21:21;49.38;;;25.13;;
35223;SDS011;21367;51.930;8.112;2023-05-07T07:26:25;45.50;;;24.42;;
35223;SDS011;21367;51.930;8.112;2023-05-07T07:31:31;50.35;;;25.88;;
35223;SDS011;21367;51.930;8.112;2023-05-07T07:36:35;47.50;;;24.30;;
35223;SDS011;21367;51.930;8.112;2023-05-07T07:41:39;40.75;;;22.48;;
35223;SDS011;21367;51.930;8.112;2023-05-07T07:46:45;41.15;;;22.15;;
35223;SDS011;21367;51.930;8.112;2023-05-07T07:51:51;42.28;;;21.75;;
35223;SDS011;21367;51.930;8.112;2023-05-07T07:56:57;44.97;;;22.50;;
35223;SDS011;21367;51.930;8.112;2023-05-07T08:02:11;36.67;;;21.05;;
35223;SDS011;21367;51.930;8.112;2023-05-07T08:07:15;38.08;;;21.35;;
35223;SDS011;21367;51.930;8.112;2023-05-07T08:12:22;41.05;;;21.85;;
35223;SDS011;21367;51.930;8.112;2023-05-07T08:17:30;37.45;;;19.85;;
35223;SDS011;21367;51.930;8.112;2023-05-07T08:22:34;42.92;;;21.20;;
35223;SDS011;21367;51.930;8.112;2023-05-07T08:27:39;30.40;;;18.80;;
35223;SDS011;21367;51.930;8.112;2023-05-07T08:32:48;36.53;;;20.63;;
35223;SDS011;21367;51.930;8.112;2023-05-07T08:37:53;34.78;;;18.75;;
35223;SDS011;21367;51.930;8.112;2023-05-07T08:42:59;31.77;;;17.98;;
35223;SDS011;21367;51.930;8.112;2023-05-07T08:48:08;28.38;;;15.90;;
35223;SDS011;21367;51.930;8.112;2023-05-07T08:53:21;30.13;;;16.80;;
35223;SDS011;21367;51.930;8.112;2023-05-07T08:58:26;27.52;;;16.52;;
35223;SDS011;21367;51.930;8.112;2023-05-07T09:03:34;27.00;;;17.17;;
35223;SDS011;21367;51.930;8.112;2023-05-07T09:08:39;30.67;;;16.67;;
35223;SDS011;21367;51.930;8.112;2023-05-07T09:13:44;29.92;;;16.67;;
35223;SDS011;21367;51.930;8.112;2023-05-07T09:18:54;26.90;;;17.00;;
35223;SDS011;21367;51.930;8.112;2023-05-07T09:24:02;32.25;;;15.95;;
35223;SDS011;21367;51.930;8.112;2023-05-07T09:29:10;29.83;;;15.05;;
35223;SDS011;21367;51.930;8.112;2023-05-07T09:34:18;20.95;;;13.20;;
35223;SDS011;21367;51.930;8.112;2023-05-07T09:39:27;22.45;;;14.23;;
35223;SDS011;21367;51.930;8.112;2023-05-07T09:44:43;22.45;;;14.15;;
35223;SDS011;21367;51.930;8.112;2023-05-07T09:49:56;25.05;;;14.60;;
35223;SDS011;21367;51.930;8.112;2023-05-07T09:55:03;22.85;;;13.35;;
35223;SDS011;21367;51.930;8.112;2023-05-07T10:00:09;20.33;;;12.55;;
35223;SDS011;21367;51.930;8.112;2023-05-07T10:05:24;22.67;;;13.02;;
35223;SDS011;21367;51.930;8.112;2023-05-07T10:10:32;20.15;;;12.18;;
35223;SDS011;21367;51.930;8.112;2023-05-07T10:15:38;19.80;;;12.18;;
35223;SDS011;21367;51.930;8.112;2023-05-07T10:20:45;25.30;;;12.27;;
35223;SDS011;21367;51.930;8.112;2023-05-07T10:25:51;21.75;;;12.02;;
35223;SDS011;21367;51.930;8.112;2023-05-07T10:30:59;19.80;;;12.30;;
35223;SDS011;21367;51.930;8.112;2023-05-07T10:36:20;17.85;;;11.80;;
35223;SDS011;21367;51.930;8.112;2023-05-07T10:41:27;20.65;;;13.25;;
35223;SDS011;21367;51.930;8.112;2023-05-07T10:46:31;19.40;;;12.93;;
35223;SDS011;21367;51.930;8.112;2023-05-07T10:51:45;20.20;;;12.52;;
35223;SDS011;21367;51.930;8.112;2023-05-07T10:56:57;20.80;;;13.32;;
35223;SDS011;21367;51.930;8.112;2023-05-07T11:08:19;21.45;;;11.95;;
35223;SDS011;21367;51.930;8.112;2023-05-07T11:13:42;21.25;;;12.55;;
35223;SDS011;21367;51.930;8.112;2023-05-07T11:19:00;18.98;;;12.05;;
35223;SDS011;21367;51.930;8.112;2023-05-07T11:24:14;20.45;;;12.23;;
35223;SDS011;21367;51.930;8.112;2023-05-07T11:34:37;22.13;;;10.98;;
35223;SDS011;21367;51.930;8.112;2023-05-07T11:39:44;19.73;;;12.23;;
35223;SDS011;21367;51.930;8.112;2023-05-07T11:44:48;16.17;;;10.95;;
35223;SDS011;21367;51.930;8.112;2023-05-07T11:49:53;16.90;;;10.90;;
35223;SDS011;21367;51.930;8.112;2023-05-07T11:55:00;19.38;;;11.85;;
35223;SDS011;21367;51.930;8.112;2023-05-07T12:00:06;18.23;;;11.18;;
35223;SDS011;21367;51.930;8.112;2023-05-07T12:05:13;15.63;;;10.70;;
35223;SDS011;21367;51.930;8.112;2023-05-07T12:10:20;14.85;;;10.15;;
35223;SDS011;21367;51.930;8.112;2023-05-07T12:15:25;16.73;;;9.60;;
35223;SDS011;21367;51.930;8.112;2023-05-07T12:20:29;17.30;;;10.00;;
35223;SDS011;21367;51.930;8.112;2023-05-07T12:25:38;14.98;;;9.85;;
35223;SDS011;21367;51.930;8.112;2023-05-07T12:30:47;14.15;;;8.80;;
35223;SDS011;21367;51.930;8.112;2023-05-07T12:35:54;15.07;;;9.18;;
35223;SDS011;21367;51.930;8.112;2023-05-07T12:41:01;11.60;;;8.20;;
35223;SDS011;21367;51.930;8.112;2023-05-07T12:46:05;16.02;;;9.82;;
35223;SDS011;21367;51.930;8.112;2023-05-07T12:51:10;14.02;;;7.55;;
35223;SDS011;21367;51.930;8.112;2023-05-07T12:56:18;16.42;;;9.38;;
35223;SDS011;21367;51.930;8.112;2023-05-07T13:01:22;14.68;;;7.85;;
35223;SDS011;21367;51.930;8.112;2023-05-07T13:06:32;13.43;;;7.80;;
35223;SDS011;21367;51.930;8.112;2023-05-07T13:11:39;10.77;;;7.40;;
35223;SDS011;21367;51.930;8.112;2023-05-07T13:16:43;12.07;;;6.97;;
35223;SDS011;21367;51.930;8.112;2023-05-07T13:21:47;10.80;;;6.85;;
35223;SDS011;21367;51.930;8.112;2023-05-07T13:26:54;10.13;;;6.78;;
35223;SDS011;21367;51.930;8.112;2023-05-07T13:32:00;10.77;;;7.43;;
35223;SDS011;21367;51.930;8.112;2023-05-07T13:37:03;13.75;;;7.40;;
35223;SDS011;21367;51.930;8.112;2023-05-07T13:42:10;11.73;;;6.93;;
35223;SDS011;21367;51.930;8.112;2023-05-07T13:47:14;9.18;;;5.85;;
35223;SDS011;21367;51.930;8.112;2023-05-07T13:52:18;8.85;;;5.90;;
35223;SDS011;21367;51.930;8.112;2023-05-07T13:57:25;7.25;;;5.03;;
35223;SDS011;21367;51.930;8.112;2023-05-07T14:02:29;8.55;;;5.15;;
35223;SDS011;21367;51.930;8.112;2023-05-07T14:07:33;9.70;;;4.85;;
35223;SDS011;21367;51.930;8.112;2023-05-07T14:12:40;10.90;;;5.45;;
35223;SDS011;21367;51.930;8.112;2023-05-07T14:17:45;6.47;;;4.18;;
35223;SDS011;21367;51.930;8.112;2023-05-07T14:22:48;7.55;;;4.65;;
35223;SDS011;21367;51.930;8.112;2023-05-07T14:27:57;5.10;;;4.30;;
35223;SDS011;21367;51.930;8.112;2023-05-07T14:33:02;8.93;;;4.80;;
35223;SDS011;21367;51.930;8.112;2023-05-07T14:38:05;7.47;;;4.65;;
35223;SDS011;21367;51.930;8.112;2023-05-07T14:43:12;9.85;;;5.50;;
35223;SDS011;21367;51.930;8.112;2023-05-07T14:48:16;7.70;;;4.55;;
35223;SDS011;21367;51.930;8.112;2023-05-07T14:53:19;7.57;;;5.00;;
35223;SDS011;21367;51.930;8.112;2023-05-07T14:58:29;10.88;;;5.22;;
35223;SDS011;21367;51.930;8.112;2023-05-07T15:03:32;8.48;;;4.35;;
35223;SDS011;21367;51.930;8.112;2023-05-07T15:08:37;8.38;;;4.60;;
35223;SDS011;21367;51.930;8.112;2023-05-07T15:13:44;7.50;;;4.63;;
35223;SDS011;21367;51.930;8.112;2023-05-07T15:18:48;7.45;;;4.93;;
35223;SDS011;21367;51.930;8.112;2023-05-07T15:23:52;8.52;;;5.53;;
35223;SDS011;21367;51.930;8.112;2023-05-07T15:28:58;10.98;;;5.80;;
35223;SDS011;21367;51.930;8.112;2023-05-07T15:34:05;11.88;;;5.85;;
35223;SDS011;21367;51.930;8.112;2023-05-07T15:39:09;12.90;;;6.17;;
35223;SDS011;21367;51.930;8.112;2023-05-07T15:44:19;10.15;;;6.15;;
35223;SDS011;21367;51.930;8.112;2023-05-07T15:49:23;15.10;;;6.82;;
35223;SDS011;21367;51.930;8.112;2023-05-07T15:54:27;10.10;;;6.40;;
35223;SDS011;21367;51.930;8.112;2023-05-07T15:59:33;12.80;;;7.43;;
35223;SDS011;21367;51.930;8.112;2023-05-07T16:04:40;17.15;;;7.97;;
35223;SDS011;21367;51.930;8.112;2023-05-07T16:09:46;14.98;;;8.30;;
35223;SDS011;21367;51.930;8.112;2023-05-07T16:14:52;12.50;;;7.75;;
35223;SDS011;21367;51.930;8.112;2023-05-07T16:19:56;15.63;;;8.80;;
35223;SDS011;21367;51.930;8.112;2023-05-07T16:25:03;12.80;;;8.40;;
35223;SDS011;21367;51.930;8.112;2023-05-07T16:30:11;14.52;;;8.07;;
35223;SDS011;21367;51.930;8.112;2023-05-07T16:35:15;14.63;;;8.48;;
35223;SDS011;21367;51.930;8.112;2023-05-07T16:40:20;17.08;;;9.32;;
35223;SDS011;21367;51.930;8.112;2023-05-07T16:45:26;15.07;;;8.88;;
35223;SDS011;21367;51.930;8.112;2023-05-07T16:50:30;19.75;;;9.07;;
35223;SDS011;21367;51.930;8.112;2023-05-07T16:55:34;15.20;;;9.38;;
35223;SDS011;21367;51.930;8.112;2023-05-07T17:00:41;15.80;;;10.15;;
35223;SDS011;21367;51.930;8.112;2023-05-07T17:05:45;15.02;;;9.57;;
35223;SDS011;21367;51.930;8.112;2023-05-07T17:10:51;15.95;;;10.20;;
35223;SDS011;21367;51.930;8.112;2023-05-07T17:15:57;18.75;;;10.18;;
35223;SDS011;21367;51.930;8.112;2023-05-07T17:21:01;18.00;;;8.93;;
35223;SDS011;21367;51.930;8.112;2023-05-07T17:26:10;16.63;;;9.60;;
35223;SDS011;21367;51.930;8.112;2023-05-07T17:31:16;17.98;;;9.80;;
35223;SDS011;21367;51.930;8.112;2023-05-07T17:36:20;19.23;;;9.88;;
35223;SDS011;21367;51.930;8.112;2023-05-07T17:41:24;19.80;;;9.75;;
35223;SDS011;21367;51.930;8.112;2023-05-07T17:46:30;15.52;;;9.60;;
35223;SDS011;21367;51.930;8.112;2023-05-07T17:51:35;19.17;;;10.05;;
35223;SDS011;21367;51.930;8.112;2023-05-07T17:56:38;16.25;;;9.40;;
35223;SDS011;21367;51.930;8.112;2023-05-07T18:01:53;14.88;;;9.43;;
35223;SDS011;21367;51.930;8.112;2023-05-07T18:06:57;15.30;;;10.00;;
35223;SDS011;21367;51.930;8.112;2023-05-07T18:12:00;16.65;;;10.57;;
35223;SDS011;21367;51.930;8.112;2023-05-07T18:17:07;22.98;;;11.00;;
35223;SDS011;21367;51.930;8.112;2023-05-07T18:22:11;21.27;;;9.77;;
35223;SDS011;21367;51.930;8.112;2023-05-07T18:27:15;14.30;;;9.52;;
35223;SDS011;21367;51.930;8.112;2023-05-07T18:32:21;17.30;;;10.25;;
35223;SDS011;21367;51.930;8.112;2023-05-07T18:37:25;13.63;;;9.75;;
35223;SDS011;21367;51.930;8.112;2023-05-07T18:42:30;13.57;;;9.30;;
35223;SDS011;21367;51.930;8.112;2023-05-07T18:47:38;12.57;;;8.02;;
35223;SDS011;21367;51.930;8.112;2023-05-07T18:52:42;13.90;;;8.85;;
35223;SDS011;21367;51.930;8.112;2023-05-07T18:57:48;13.60;;;8.98;;
35223;SDS011;21367;51.930;8.112;2023-05-07T19:02:55;11.65;;;8.52;;
35223;SDS011;21367;51.930;8.112;2023-05-07T19:07:59;13.70;;;9.40;;
35223;SDS011;21367;51.930;8.112;2023-05-07T19:13:03;14.70;;;9.88;;
35223;SDS011;21367;51.930;8.112;2023-05-07T19:18:20;15.35;;;9.38;;
35223;SDS011;21367;51.930;8.112;2023-05-07T19:23:23;19.27;;;9.90;;
35223;SDS011;21367;51.930;8.112;2023-05-07T19:28:30;18.38;;;9.68;;
35223;SDS011;21367;51.930;8.112;2023-05-07T19:33:37;16.70;;;10.52;;
35223;SDS011;21367;51.930;8.112;2023-05-07T19:38:41;17.17;;;10.13;;
35223;SDS011;21367;51.930;8.112;2023-05-07T19:43:46;15.18;;;9.98;;
35223;SDS011;21367;51.930;8.112;2023-05-07T19:48:53;13.88;;;9.68;;
35223;SDS011;21367;51.930;8.112;2023-05-07T19:53:57;17.50;;;9.05;;
35223;SDS011;21367;51.930;8.112;2023-05-07T19:59:02;16.33;;;8.80;;
35223;SDS011;21367;51.930;8.112;2023-05-07T20:04:09;15.38;;;9.98;;
35223;SDS011;21367;51.930;8.112;2023-05-07T20:09:13;12.52;;;9.43;;
35223;SDS011;21367;51.930;8.112;2023-05-07T20:14:16;13.02;;;9.93;;
35223;SDS011;21367;51.930;8.112;2023-05-07T20:19:23;14.35;;;9.85;;
35223;SDS011;21367;51.930;8.112;2023-05-07T20:24:27;14.63;;;9.00;;
35223;SDS011;21367;51.930;8.112;2023-05-07T20:29:31;18.38;;;8.95;;
35223;SDS011;21367;51.930;8.112;2023-05-07T20:34:37;12.88;;;9.15;;
35223;SDS011;21367;51.930;8.112;2023-05-07T20:39:41;13.93;;;9.52;;
35223;SDS011;21367;51.930;8.112;2023-05-07T20:44:45;14.20;;;9.00;;
35223;SDS011;21367;51.930;8.112;2023-05-07T20:49:53;15.75;;;8.95;;
35223;SDS011;21367;51.930;8.112;2023-05-07T20:54:57;15.35;;;9.25;;
35223;SDS011;21367;51.930;8.112;2023-05-07T21:00:01;14.75;;;9.50;;
35223;SDS011;21367;51.930;8.112;2023-05-07T21:05:08;14.55;;;9.60;;
35223;SDS011;21367;51.930;8.112;2023-05-07T21:10:12;15.07;;;9.52;;
35223;SDS011;21367;51.930;8.112;2023-05-07T21:15:16;15.10;;;10.40;;
35223;SDS011;21367;51.930;8.112;2023-05-07T21:20:24;13.48;;;10.25;;
35223;SDS011;21367;51.930;8.112;2023-05-07T21:25:28;15.48;;;11.20;;
35223;SDS011;21367;51.930;8.112;2023-05-07T21:30:32;13.38;;;10.02;;
35223;SDS011;21367;51.930;8.112;2023-05-07T21:35:39;17.88;;;10.18;;
35223;SDS011;21367;51.930;8.112;2023-05-07T21:40:43;14.70;;;10.23;;
35223;SDS011;21367;51.930;8.112;2023-05-07T21:45:49;13.68;;;9.70;;
35223;SDS011;21367;51.930;8.112;2023-05-07T21:51:02;15.50;;;10.00;;
35223;SDS011;21367;51.930;8.112;2023-05-07T21:56:08;14.20;;;9.43;;
35223;SDS011;21367;51.930;8.112;2023-05-07T22:01:11;12.68;;;9.38;;
35223;SDS011;21367;51.930;8.112;2023-05-07T22:06:18;18.60;;;9.52;;
35223;SDS011;21367;51.930;8.112;2023-05-07T22:11:21;14.25;;;9.55;;
35223;SDS011;21367;51.930;8.112;2023-05-07T22:16:29;15.77;;;9.40;;
35223;SDS011;21367;51.930;8.112;2023-05-07T22:21:36;15.27;;;9.68;;
35223;SDS011;21367;51.930;8.112;2023-05-07T22:26:40;13.30;;;9.30;;
35223;SDS011;21367;51.930;8.112;2023-05-07T22:31:44;14.85;;;9.82;;
35223;SDS011;21367;51.930;8.112;2023-05-07T22:42:12;15.20;;;9.65;;
35223;SDS011;21367;51.930;8.112;2023-05-07T22:47:16;15.52;;;9.23;;
35223;SDS011;21367;51.930;8.112;2023-05-07T22:52:30;16.02;;;10.35;;
35223;SDS011;21367;51.930;8.112;2023-05-07T22:57:35;14.57;;;10.05;;
35223;SDS011;21367;51.930;8.112;2023-05-07T23:02:39;15.98;;;9.73;;
35223;SDS011;21367;51.930;8.112;2023-05-07T23:07:45;16.35;;;10.48;;
35223;SDS011;21367;51.930;8.112;2023-05-07T23:12:50;15.02;;;10.10;;
35223;SDS011;21367;51.930;8.112;2023-05-07T23:17:54;14.13;;;9.90;;
35223;SDS011;21367;51.930;8.112;2023-05-07T23:23:01;14.60;;;9.25;;
35223;SDS011;21367;51.930;8.112;2023-05-07T23:28:05;18.20;;;10.60;;
35223;SDS011;21367;51.930;8.112;2023-05-07T23:33:10;17.10;;;9.98;;
35223;SDS011;21367;51.930;8.112;2023-05-07T23:38:17;16.75;;;9.88;;
35223;SDS011;21367;51.930;8.112;2023-05-07T23:43:24;16.98;;;10.73;;
35223;SDS011;21367;51.930;8.112;2023-05-07T23:48:28;17.92;;;10.18;;
35223;SDS011;21367;51.930;8.112;2023-05-07T23:53:35;17.73;;;10.50;;
35223;SDS011;21367;51.930;8.112;2023-05-07T23:58:40;14.13;;;9.68;;
